sensor_id;sensor_type;location;lat;lon;timestamp;P1;durP1;ratioP1;P2;durP2;ratioP2
18144;SDS011;14857;41.200;-8.326;2022-11-18T00:01:36;13.13;;;6.82;;
18144;SDS011;14857;41.200;-8.326;2022-11-18T00:04:06;16.38;;;7.25;;
18144;SDS011;14857;41.200;-8.326;2022-11-18T00:06:35;23.77;;;8.48;;
18144;SDS011;14857;41.200;-8.326;2022-11-18T00:09:03;21.67;;;8.32;;
18144;SDS011;14857;41.200;-8.326;2022-11-18T00:11:32;22.65;;;9.77;;
18144;SDS011;14857;41.200;-8.326;2022-11-18T00:14:18;21.17;;;9.18;;
18144;SDS011;14857;41.200;-8.326;2022-11-18T00:16:50;18.80;;;9.05;;
18144;SDS011;14857;41.200;-8.326;2022-11-18T00:19:22;26.60;;;8.30;;
18144;SDS011;14857;41.200;-8.326;2022-11-18T00:21:52;15.32;;;6.82;;
18144;SDS011;14857;41.200;-8.326;2022-11-18T00:24:21;15.23;;;6.35;;
18144;SDS011;14857;41.200;-8.326;2022-11-18T00:26:50;12.77;;;6.13;;
18144;SDS011;14857;41.200;-8.326;2022-11-18T00:29:19;17.10;;;6.18;;
18144;SDS011;14857;41.200;-8.326;2022-11-18T00:31:48;16.33;;;5.80;;
18144;SDS011;14857;41.200;-8.326;2022-11-18T00:34:16;12.57;;;6.32;;
18144;SDS011;14857;41.200;-8.326;2022-11-18T00:36:47;12.52;;;4.85;;
18144;SDS011;14857;41.200;-8.326;2022-11-18T00:39:16;11.73;;;4.05;;
18144;SDS011;14857;41.200;-8.326;2022-11-18T00:41:47;13.48;;;4.88;;
18144;SDS011;14857;41.200;-8.326;2022-11-18T00:44:33;7.93;;;3.88;;
18144;SDS011;14857;41.200;-8.326;2022-11-18T00:47:02;10.95;;;5.10;;
18144;SDS011;14857;41.200;-8.326;2022-11-18T00:49:31;11.27;;;4.47;;
18144;SDS011;14857;41.200;-8.326;2022-11-18T00:52:02;12.70;;;4.15;;
18144;SDS011;14857;41.200;-8.326;2022-11-18T00:54:31;7.03;;;3.55;;
18144;SDS011;14857;41.200;-8.326;2022-11-18T00:57:00;10.35;;;3.55;;
18144;SDS011;14857;41.200;-8.326;2022-11-18T00:59:29;8.50;;;4.03;;
18144;SDS011;14857;41.200;-8.326;2022-11-18T01:01:58;8.10;;;3.10;;
18144;SDS011;14857;41.200;-8.326;2022-11-18T01:04:27;12.25;;;3.90;;
18144;SDS011;14857;41.200;-8.326;2022-11-18T01:06:56;7.32;;;2.53;;
18144;SDS011;14857;41.200;-8.326;2022-11-18T01:09:26;3.95;;;2.30;;
18144;SDS011;14857;41.200;-8.326;2022-11-18T01:11:54;7.80;;;2.17;;
18144;SDS011;14857;41.200;-8.326;2022-11-18T01:14:41;8.18;;;3.17;;
18144;SDS011;14857;41.200;-8.326;2022-11-18T01:17:09;7.50;;;2.65;;
18144;SDS011;14857;41.200;-8.326;2022-11-18T01:19:38;6.18;;;2.47;;
18144;SDS011;14857;41.200;-8.326;2022-11-18T01:22:07;6.03;;;2.22;;
18144;SDS011;14857;41.200;-8.326;2022-11-18T01:24:37;4.53;;;2.03;;
18144;SDS011;14857;41.200;-8.326;2022-11-18T01:27:05;10.50;;;2.88;;
18144;SDS011;14857;41.200;-8.326;2022-11-18T01:29:34;7.72;;;2.45;;
18144;SDS011;14857;41.200;-8.326;2022-11-18T01:32:03;6.70;;;3.03;;
18144;SDS011;14857;41.200;-8.326;2022-11-18T01:34:50;7.43;;;2.63;;
18144;SDS011;14857;41.200;-8.326;2022-11-18T01:37:19;11.40;;;3.03;;
18144;SDS011;14857;41.200;-8.326;2022-11-18T01:39:49;8.18;;;2.78;;
18144;SDS011;14857;41.200;-8.326;2022-11-18T01:42:17;4.90;;;2.72;;
18144;SDS011;14857;41.200;-8.326;2022-11-18T01:44:56;9.93;;;3.00;;
18144;SDS011;14857;41.200;-8.326;2022-11-18T01:47:28;8.20;;;2.45;;
18144;SDS011;14857;41.200;-8.326;2022-11-18T01:50:00;9.55;;;2.40;;
18144;SDS011;14857;41.200;-8.326;2022-11-18T01:52:29;8.52;;;2.53;;
18144;SDS011;14857;41.200;-8.326;2022-11-18T01:55:02;9.80;;;2.35;;
18144;SDS011;14857;41.200;-8.326;2022-11-18T01:57:34;8.82;;;2.38;;
18144;SDS011;14857;41.200;-8.326;2022-11-18T02:00:04;9.43;;;2.75;;
18144;SDS011;14857;41.200;-8.326;2022-11-18T02:02:35;6.03;;;3.25;;
18144;SDS011;14857;41.200;-8.326;2022-11-18T02:05:08;5.90;;;2.70;;
18144;SDS011;14857;41.200;-8.326;2022-11-18T02:07:39;5.53;;;2.70;;
18144;SDS011;14857;41.200;-8.326;2022-11-18T02:10:16;6.95;;;2.67;;
18144;SDS011;14857;41.200;-8.326;2022-11-18T02:12:47;6.72;;;2.80;;
18144;SDS011;14857;41.200;-8.326;2022-11-18T02:15:17;4.78;;;2.42;;
18144;SDS011;14857;41.200;-8.326;2022-11-18T02:17:54;8.20;;;2.70;;
18144;SDS011;14857;41.200;-8.326;2022-11-18T02:20:30;7.80;;;3.47;;
18144;SDS011;14857;41.200;-8.326;2022-11-18T02:29:43;3.83;;;1.80;;
18144;SDS011;14857;41.200;-8.326;2022-11-18T02:32:21;4.78;;;1.83;;
18144;SDS011;14857;41.200;-8.326;2022-11-18T02:34:54;4.95;;;1.65;;
18144;SDS011;14857;41.200;-8.326;2022-11-18T02:37:30;6.78;;;1.75;;
18144;SDS011;14857;41.200;-8.326;2022-11-18T02:40:05;4.78;;;2.08;;
18144;SDS011;14857;41.200;-8.326;2022-11-18T02:42:38;6.28;;;1.98;;
18144;SDS011;14857;41.200;-8.326;2022-11-18T02:45:14;7.85;;;1.90;;
18144;SDS011;14857;41.200;-8.326;2022-11-18T02:47:45;5.45;;;2.05;;
18144;SDS011;14857;41.200;-8.326;2022-11-18T02:50:17;3.25;;;1.70;;
18144;SDS011;14857;41.200;-8.326;2022-11-18T02:52:51;3.47;;;1.70;;
18144;SDS011;14857;41.200;-8.326;2022-11-18T02:55:22;2.28;;;1.58;;
18144;SDS011;14857;41.200;-8.326;2022-11-18T02:57:55;8.95;;;2.83;;
18144;SDS011;14857;41.200;-8.326;2022-11-18T03:00:26;4.78;;;2.17;;
18144;SDS011;14857;41.200;-8.326;2022-11-18T03:02:55;6.20;;;1.92;;
18144;SDS011;14857;41.200;-8.326;2022-11-18T03:05:26;6.43;;;1.85;;
18144;SDS011;14857;41.200;-8.326;2022-11-18T03:08:05;9.20;;;2.08;;
18144;SDS011;14857;41.200;-8.326;2022-11-18T03:10:39;6.43;;;1.83;;
18144;SDS011;14857;41.200;-8.326;2022-11-18T03:13:21;6.35;;;2.55;;
18144;SDS011;14857;41.200;-8.326;2022-11-18T03:15:56;3.42;;;2.38;;
18144;SDS011;14857;41.200;-8.326;2022-11-18T03:18:31;5.38;;;2.58;;
18144;SDS011;14857;41.200;-8.326;2022-11-18T03:21:10;8.25;;;2.83;;
18144;SDS011;14857;41.200;-8.326;2022-11-18T03:23:46;5.47;;;2.90;;
18144;SDS011;14857;41.200;-8.326;2022-11-18T03:26:23;5.88;;;2.70;;
18144;SDS011;14857;41.200;-8.326;2022-11-18T03:28:57;8.18;;;2.72;;
18144;SDS011;14857;41.200;-8.326;2022-11-18T03:31:34;8.10;;;3.00;;
18144;SDS011;14857;41.200;-8.326;2022-11-18T03:34:08;6.43;;;3.13;;
18144;SDS011;14857;41.200;-8.326;2022-11-18T03:36:43;7.35;;;3.20;;
18144;SDS011;14857;41.200;-8.326;2022-11-18T03:39:18;10.65;;;3.72;;
18144;SDS011;14857;41.200;-8.326;2022-11-18T03:41:50;11.27;;;3.70;;
18144;SDS011;14857;41.200;-8.326;2022-11-18T03:44:24;12.15;;;3.40;;
18144;SDS011;14857;41.200;-8.326;2022-11-18T03:46:58;7.97;;;2.08;;
18144;SDS011;14857;41.200;-8.326;2022-11-18T03:49:33;4.95;;;1.70;;
18144;SDS011;14857;41.200;-8.326;2022-11-18T03:52:09;5.45;;;2.15;;
18144;SDS011;14857;41.200;-8.326;2022-11-18T03:54:42;4.43;;;2.13;;
18144;SDS011;14857;41.200;-8.326;2022-11-18T03:57:15;5.68;;;2.42;;
18144;SDS011;14857;41.200;-8.326;2022-11-18T03:59:48;8.25;;;2.70;;
18144;SDS011;14857;41.200;-8.326;2022-11-18T04:02:22;5.75;;;2.55;;
18144;SDS011;14857;41.200;-8.326;2022-11-18T04:04:54;7.85;;;2.78;;
18144;SDS011;14857;41.200;-8.326;2022-11-18T04:07:26;9.63;;;2.88;;
18144;SDS011;14857;41.200;-8.326;2022-11-18T04:10:02;11.60;;;3.33;;
18144;SDS011;14857;41.200;-8.326;2022-11-18T04:12:37;15.70;;;3.22;;
18144;SDS011;14857;41.200;-8.326;2022-11-18T04:15:09;6.68;;;2.90;;
18144;SDS011;14857;41.200;-8.326;2022-11-18T04:17:40;7.63;;;2.88;;
18144;SDS011;14857;41.200;-8.326;2022-11-18T04:20:12;8.13;;;3.50;;
18144;SDS011;14857;41.200;-8.326;2022-11-18T04:22:52;9.20;;;3.10;;
18144;SDS011;14857;41.200;-8.326;2022-11-18T04:25:20;10.20;;;3.17;;
18144;SDS011;14857;41.200;-8.326;2022-11-18T04:27:50;10.55;;;3.38;;
18144;SDS011;14857;41.200;-8.326;2022-11-18T04:30:18;49.72;;;3.65;;
18144;SDS011;14857;41.200;-8.326;2022-11-18T04:32:48;39.70;;;3.85;;
18144;SDS011;14857;41.200;-8.326;2022-11-18T04:35:17;15.77;;;3.35;;
18144;SDS011;14857;41.200;-8.326;2022-11-18T04:37:45;17.67;;;2.80;;
18144;SDS011;14857;41.200;-8.326;2022-11-18T04:40:14;17.50;;;3.05;;
18144;SDS011;14857;41.200;-8.326;2022-11-18T04:42:43;18.05;;;3.17;;
18144;SDS011;14857;41.200;-8.326;2022-11-18T04:45:11;18.95;;;2.92;;
18144;SDS011;14857;41.200;-8.326;2022-11-18T04:47:40;10.45;;;2.38;;
18144;SDS011;14857;41.200;-8.326;2022-11-18T04:50:10;8.52;;;2.10;;
18144;SDS011;14857;41.200;-8.326;2022-11-18T04:52:38;6.63;;;2.60;;
18144;SDS011;14857;41.200;-8.326;2022-11-18T04:55:07;10.65;;;2.58;;
18144;SDS011;14857;41.200;-8.326;2022-11-18T04:57:36;6.72;;;2.10;;
18144;SDS011;14857;41.200;-8.326;2022-11-18T05:00:05;16.02;;;2.22;;
18144;SDS011;14857;41.200;-8.326;2022-11-18T05:05:53;5.18;;;1.80;;
18144;SDS011;14857;41.200;-8.326;2022-11-18T05:08:22;3.83;;;2.00;;
18144;SDS011;14857;41.200;-8.326;2022-11-18T05:10:51;8.75;;;1.73;;
18144;SDS011;14857;41.200;-8.326;2022-11-18T05:13:40;7.78;;;1.63;;
18144;SDS011;14857;41.200;-8.326;2022-11-18T05:16:07;7.57;;;1.80;;
18144;SDS011;14857;41.200;-8.326;2022-11-18T05:18:36;5.90;;;2.25;;
18144;SDS011;14857;41.200;-8.326;2022-11-18T05:21:06;4.25;;;2.00;;
18144;SDS011;14857;41.200;-8.326;2022-11-18T05:23:35;7.00;;;2.03;;
18144;SDS011;14857;41.200;-8.326;2022-11-18T05:26:04;4.25;;;2.00;;
18144;SDS011;14857;41.200;-8.326;2022-11-18T05:28:33;7.43;;;2.17;;
18144;SDS011;14857;41.200;-8.326;2022-11-18T05:31:05;3.15;;;1.75;;
18144;SDS011;14857;41.200;-8.326;2022-11-18T05:33:34;6.07;;;2.13;;
18144;SDS011;14857;41.200;-8.326;2022-11-18T05:36:03;4.28;;;2.08;;
18144;SDS011;14857;41.200;-8.326;2022-11-18T05:38:34;5.95;;;1.98;;
18144;SDS011;14857;41.200;-8.326;2022-11-18T05:41:02;5.40;;;2.10;;
18144;SDS011;14857;41.200;-8.326;2022-11-18T05:43:32;8.90;;;1.90;;
18144;SDS011;14857;41.200;-8.326;2022-11-18T05:46:00;6.05;;;2.00;;
18144;SDS011;14857;41.200;-8.326;2022-11-18T05:48:28;5.03;;;1.60;;
18144;SDS011;14857;41.200;-8.326;2022-11-18T05:50:57;5.28;;;2.28;;
18144;SDS011;14857;41.200;-8.326;2022-11-18T05:53:25;13.52;;;2.30;;
18144;SDS011;14857;41.200;-8.326;2022-11-18T05:55:57;5.55;;;2.15;;
18144;SDS011;14857;41.200;-8.326;2022-11-18T05:58:31;8.45;;;2.17;;
18144;SDS011;14857;41.200;-8.326;2022-11-18T06:01:01;4.18;;;2.05;;
18144;SDS011;14857;41.200;-8.326;2022-11-18T06:03:34;3.72;;;1.90;;
18144;SDS011;14857;41.200;-8.326;2022-11-18T06:06:07;3.65;;;1.83;;
18144;SDS011;14857;41.200;-8.326;2022-11-18T06:08:38;5.07;;;1.67;;
18144;SDS011;14857;41.200;-8.326;2022-11-18T06:11:11;7.28;;;2.38;;
18144;SDS011;14857;41.200;-8.326;2022-11-18T06:13:44;4.95;;;2.25;;
18144;SDS011;14857;41.200;-8.326;2022-11-18T06:16:16;16.58;;;2.40;;
18144;SDS011;14857;41.200;-8.326;2022-11-18T06:18:48;5.85;;;2.35;;
18144;SDS011;14857;41.200;-8.326;2022-11-18T06:21:17;10.23;;;1.90;;
18144;SDS011;14857;41.200;-8.326;2022-11-18T06:23:45;7.25;;;2.45;;
18144;SDS011;14857;41.200;-8.326;2022-11-18T06:26:15;11.60;;;2.00;;
18144;SDS011;14857;41.200;-8.326;2022-11-18T06:28:45;10.75;;;1.85;;
18144;SDS011;14857;41.200;-8.326;2022-11-18T06:31:15;20.58;;;2.20;;
18144;SDS011;14857;41.200;-8.326;2022-11-18T06:33:44;14.27;;;2.63;;
18144;SDS011;14857;41.200;-8.326;2022-11-18T06:36:13;17.83;;;2.75;;
18144;SDS011;14857;41.200;-8.326;2022-11-18T06:38:41;11.13;;;2.10;;
18144;SDS011;14857;41.200;-8.326;2022-11-18T06:41:09;9.68;;;2.25;;
18144;SDS011;14857;41.200;-8.326;2022-11-18T06:43:39;8.00;;;2.47;;
18144;SDS011;14857;41.200;-8.326;2022-11-18T06:46:09;10.35;;;2.42;;
18144;SDS011;14857;41.200;-8.326;2022-11-18T06:48:56;9.57;;;2.10;;
18144;SDS011;14857;41.200;-8.326;2022-11-18T06:51:25;4.45;;;2.25;;
18144;SDS011;14857;41.200;-8.326;2022-11-18T06:53:55;6.47;;;2.45;;
18144;SDS011;14857;41.200;-8.326;2022-11-18T06:56:24;5.22;;;1.85;;
18144;SDS011;14857;41.200;-8.326;2022-11-18T06:58:54;8.90;;;2.30;;
18144;SDS011;14857;41.200;-8.326;2022-11-18T07:01:25;9.57;;;2.25;;
18144;SDS011;14857;41.200;-8.326;2022-11-18T07:03:56;22.02;;;2.20;;
18144;SDS011;14857;41.200;-8.326;2022-11-18T07:06:26;12.10;;;2.20;;
18144;SDS011;14857;41.200;-8.326;2022-11-18T07:08:58;14.13;;;2.22;;
18144;SDS011;14857;41.200;-8.326;2022-11-18T07:11:27;3.63;;;2.05;;
18144;SDS011;14857;41.200;-8.326;2022-11-18T07:13:57;11.02;;;2.25;;
18144;SDS011;14857;41.200;-8.326;2022-11-18T07:16:27;12.10;;;2.20;;
18144;SDS011;14857;41.200;-8.326;2022-11-18T07:18:56;6.88;;;2.28;;
18144;SDS011;14857;41.200;-8.326;2022-11-18T07:21:25;13.70;;;2.63;;
18144;SDS011;14857;41.200;-8.326;2022-11-18T07:23:55;11.60;;;2.58;;
18144;SDS011;14857;41.200;-8.326;2022-11-18T07:26:23;20.42;;;2.65;;
18144;SDS011;14857;41.200;-8.326;2022-11-18T07:28:52;9.40;;;2.53;;
18144;SDS011;14857;41.200;-8.326;2022-11-18T07:31:22;20.58;;;2.38;;
18144;SDS011;14857;41.200;-8.326;2022-11-18T07:33:51;7.93;;;2.03;;
18144;SDS011;14857;41.200;-8.326;2022-11-18T07:36:20;2.20;;;1.80;;
18144;SDS011;14857;41.200;-8.326;2022-11-18T07:38:50;14.77;;;2.05;;
18144;SDS011;14857;41.200;-8.326;2022-11-18T07:41:20;8.02;;;2.15;;
18144;SDS011;14857;41.200;-8.326;2022-11-18T07:43:50;19.90;;;3.00;;
18144;SDS011;14857;41.200;-8.326;2022-11-18T07:46:29;11.90;;;2.35;;
18144;SDS011;14857;41.200;-8.326;2022-11-18T07:48:59;11.30;;;2.00;;
18144;SDS011;14857;41.200;-8.326;2022-11-18T07:51:31;17.42;;;2.92;;
18144;SDS011;14857;41.200;-8.326;2022-11-18T07:54:04;24.27;;;3.00;;
18144;SDS011;14857;41.200;-8.326;2022-11-18T07:56:33;8.52;;;2.33;;
18144;SDS011;14857;41.200;-8.326;2022-11-18T07:59:02;6.57;;;2.03;;
18144;SDS011;14857;41.200;-8.326;2022-11-18T08:01:32;3.78;;;2.03;;
18144;SDS011;14857;41.200;-8.326;2022-11-18T08:04:04;11.30;;;1.85;;
18144;SDS011;14857;41.200;-8.326;2022-11-18T08:06:34;5.40;;;2.22;;
18144;SDS011;14857;41.200;-8.326;2022-11-18T08:09:04;3.10;;;1.80;;
18144;SDS011;14857;41.200;-8.326;2022-11-18T08:11:34;10.32;;;2.00;;
18144;SDS011;14857;41.200;-8.326;2022-11-18T08:14:02;9.75;;;2.33;;
18144;SDS011;14857;41.200;-8.326;2022-11-18T08:16:32;6.80;;;1.92;;
18144;SDS011;14857;41.200;-8.326;2022-11-18T08:19:01;7.25;;;2.22;;
18144;SDS011;14857;41.200;-8.326;2022-11-18T08:21:29;4.65;;;1.52;;
18144;SDS011;14857;41.200;-8.326;2022-11-18T08:23:58;10.52;;;1.92;;
18144;SDS011;14857;41.200;-8.326;2022-11-18T08:26:26;6.72;;;2.20;;
18144;SDS011;14857;41.200;-8.326;2022-11-18T08:28:55;4.60;;;2.25;;
18144;SDS011;14857;41.200;-8.326;2022-11-18T08:31:25;13.32;;;2.28;;
18144;SDS011;14857;41.200;-8.326;2022-11-18T08:33:58;11.55;;;2.42;;
18144;SDS011;14857;41.200;-8.326;2022-11-18T08:36:28;8.07;;;2.83;;
18144;SDS011;14857;41.200;-8.326;2022-11-18T08:38:58;8.52;;;2.45;;
18144;SDS011;14857;41.200;-8.326;2022-11-18T08:41:29;5.97;;;2.90;;
18144;SDS011;14857;41.200;-8.326;2022-11-18T08:43:59;8.10;;;2.55;;
18144;SDS011;14857;41.200;-8.326;2022-11-18T08:46:28;4.05;;;2.13;;
18144;SDS011;14857;41.200;-8.326;2022-11-18T08:48:58;4.28;;;2.00;;
18144;SDS011;14857;41.200;-8.326;2022-11-18T08:51:27;5.50;;;2.35;;
18144;SDS011;14857;41.200;-8.326;2022-11-18T08:53:56;2.78;;;1.90;;
18144;SDS011;14857;41.200;-8.326;2022-11-18T08:56:25;4.25;;;1.80;;
18144;SDS011;14857;41.200;-8.326;2022-11-18T08:58:53;6.07;;;3.55;;
18144;SDS011;14857;41.200;-8.326;2022-11-18T09:01:22;4.72;;;2.65;;
18144;SDS011;14857;41.200;-8.326;2022-11-18T09:03:51;4.30;;;2.58;;
18144;SDS011;14857;41.200;-8.326;2022-11-18T09:06:21;3.03;;;2.28;;
18144;SDS011;14857;41.200;-8.326;2022-11-18T09:08:51;3.97;;;1.88;;
18144;SDS011;14857;41.200;-8.326;2022-11-18T09:11:21;5.82;;;2.42;;
18144;SDS011;14857;41.200;-8.326;2022-11-18T09:13:52;4.70;;;1.90;;
18144;SDS011;14857;41.200;-8.326;2022-11-18T09:16:41;5.18;;;3.08;;
18144;SDS011;14857;41.200;-8.326;2022-11-18T09:19:10;2.72;;;1.83;;
18144;SDS011;14857;41.200;-8.326;2022-11-18T09:22:00;3.20;;;2.20;;
18144;SDS011;14857;41.200;-8.326;2022-11-18T09:24:29;4.88;;;2.10;;
18144;SDS011;14857;41.200;-8.326;2022-11-18T09:26:57;3.13;;;1.77;;
18144;SDS011;14857;41.200;-8.326;2022-11-18T09:29:26;5.47;;;3.55;;
18144;SDS011;14857;41.200;-8.326;2022-11-18T09:31:55;4.95;;;2.45;;
18144;SDS011;14857;41.200;-8.326;2022-11-18T09:34:23;7.35;;;2.88;;
18144;SDS011;14857;41.200;-8.326;2022-11-18T09:36:52;7.00;;;3.65;;
18144;SDS011;14857;41.200;-8.326;2022-11-18T09:39:23;4.95;;;3.50;;
18144;SDS011;14857;41.200;-8.326;2022-11-18T09:41:54;8.85;;;3.75;;
18144;SDS011;14857;41.200;-8.326;2022-11-18T09:44:40;7.10;;;3.15;;
18144;SDS011;14857;41.200;-8.326;2022-11-18T09:47:19;5.20;;;2.80;;
18144;SDS011;14857;41.200;-8.326;2022-11-18T09:49:53;4.55;;;2.90;;
18144;SDS011;14857;41.200;-8.326;2022-11-18T09:52:23;7.60;;;3.38;;
18144;SDS011;14857;41.200;-8.326;2022-11-18T09:55:04;9.90;;;3.70;;
18144;SDS011;14857;41.200;-8.326;2022-11-18T09:57:40;6.03;;;3.30;;
18144;SDS011;14857;41.200;-8.326;2022-11-18T10:00:13;8.00;;;4.70;;
18144;SDS011;14857;41.200;-8.326;2022-11-18T10:02:47;10.20;;;4.95;;
18144;SDS011;14857;41.200;-8.326;2022-11-18T10:05:23;5.90;;;3.53;;
18144;SDS011;14857;41.200;-8.326;2022-11-18T10:07:56;5.95;;;2.85;;
18144;SDS011;14857;41.200;-8.326;2022-11-18T10:10:36;4.32;;;3.05;;
18144;SDS011;14857;41.200;-8.326;2022-11-18T10:13:12;4.47;;;2.05;;
18144;SDS011;14857;41.200;-8.326;2022-11-18T10:15:52;7.60;;;1.55;;
18144;SDS011;14857;41.200;-8.326;2022-11-18T10:18:28;6.38;;;2.78;;
18144;SDS011;14857;41.200;-8.326;2022-11-18T10:21:26;7.20;;;2.42;;
18144;SDS011;14857;41.200;-8.326;2022-11-18T10:24:06;3.50;;;2.08;;
18144;SDS011;14857;41.200;-8.326;2022-11-18T10:26:40;6.80;;;2.53;;
18144;SDS011;14857;41.200;-8.326;2022-11-18T10:29:09;3.38;;;1.88;;
18144;SDS011;14857;41.200;-8.326;2022-11-18T10:31:38;5.47;;;2.00;;
18144;SDS011;14857;41.200;-8.326;2022-11-18T10:34:09;4.55;;;1.80;;
18144;SDS011;14857;41.200;-8.326;2022-11-18T10:36:40;3.67;;;1.80;;
18144;SDS011;14857;41.200;-8.326;2022-11-18T10:39:10;4.43;;;1.77;;
18144;SDS011;14857;41.200;-8.326;2022-11-18T10:41:43;3.50;;;1.80;;
18144;SDS011;14857;41.200;-8.326;2022-11-18T10:49:54;2.95;;;1.60;;
18144;SDS011;14857;41.200;-8.326;2022-11-18T10:52:25;3.95;;;2.03;;
18144;SDS011;14857;41.200;-8.326;2022-11-18T10:55:06;3.28;;;1.77;;
18144;SDS011;14857;41.200;-8.326;2022-11-18T10:57:53;6.20;;;1.85;;
18144;SDS011;14857;41.200;-8.326;2022-11-18T11:03:24;5.80;;;2.05;;
18144;SDS011;14857;41.200;-8.326;2022-11-18T11:08:58;4.47;;;2.13;;
18144;SDS011;14857;41.200;-8.326;2022-11-18T11:11:29;3.97;;;2.03;;
18144;SDS011;14857;41.200;-8.326;2022-11-18T11:14:06;7.72;;;2.25;;
18144;SDS011;14857;41.200;-8.326;2022-11-18T11:16:46;4.90;;;2.10;;
18144;SDS011;14857;41.200;-8.326;2022-11-18T11:19:19;5.07;;;1.80;;
18144;SDS011;14857;41.200;-8.326;2022-11-18T11:21:50;4.75;;;2.35;;
18144;SDS011;14857;41.200;-8.326;2022-11-18T11:24:19;8.18;;;2.13;;
18144;SDS011;14857;41.200;-8.326;2022-11-18T11:26:53;4.50;;;2.15;;
18144;SDS011;14857;41.200;-8.326;2022-11-18T11:35:48;4.00;;;1.35;;
18144;SDS011;14857;41.200;-8.326;2022-11-18T11:38:27;7.85;;;1.40;;
18144;SDS011;14857;41.200;-8.326;2022-11-18T11:41:05;5.82;;;2.15;;
18144;SDS011;14857;41.200;-8.326;2022-11-18T11:43:43;5.95;;;2.92;;
18144;SDS011;14857;41.200;-8.326;2022-11-18T11:46:30;3.80;;;1.58;;
18144;SDS011;14857;41.200;-8.326;2022-11-18T11:49:15;2.22;;;1.40;;
18144;SDS011;14857;41.200;-8.326;2022-11-18T11:51:47;6.15;;;1.55;;
18144;SDS011;14857;41.200;-8.326;2022-11-18T11:54:28;4.43;;;1.90;;
18144;SDS011;14857;41.200;-8.326;2022-11-18T11:57:09;4.13;;;2.15;;
18144;SDS011;14857;41.200;-8.326;2022-11-18T11:59:51;5.15;;;1.95;;
18144;SDS011;14857;41.200;-8.326;2022-11-18T12:02:32;9.18;;;3.75;;
18144;SDS011;14857;41.200;-8.326;2022-11-18T12:05:19;8.38;;;3.03;;
18144;SDS011;14857;41.200;-8.326;2022-11-18T12:07:54;7.18;;;2.50;;
18144;SDS011;14857;41.200;-8.326;2022-11-18T12:10:34;5.85;;;2.08;;
18144;SDS011;14857;41.200;-8.326;2022-11-18T12:16:07;23.50;;;8.35;;
18144;SDS011;14857;41.200;-8.326;2022-11-18T12:18:49;10.85;;;3.22;;
18144;SDS011;14857;41.200;-8.326;2022-11-18T12:24:33;7.25;;;2.67;;
18144;SDS011;14857;41.200;-8.326;2022-11-18T12:27:09;17.25;;;6.40;;
18144;SDS011;14857;41.200;-8.326;2022-11-18T12:29:41;21.70;;;7.10;;
18144;SDS011;14857;41.200;-8.326;2022-11-18T12:32:25;5.53;;;2.10;;
18144;SDS011;14857;41.200;-8.326;2022-11-18T12:35:02;6.10;;;1.40;;
18144;SDS011;14857;41.200;-8.326;2022-11-18T12:37:42;4.10;;;1.95;;
18144;SDS011;14857;41.200;-8.326;2022-11-18T12:52:48;3.83;;;1.13;;
18144;SDS011;14857;41.200;-8.326;2022-11-18T12:55:23;3.75;;;1.35;;
18144;SDS011;14857;41.200;-8.326;2022-11-18T12:57:59;3.58;;;1.30;;
18144;SDS011;14857;41.200;-8.326;2022-11-18T13:00:31;6.45;;;1.40;;
18144;SDS011;14857;41.200;-8.326;2022-11-18T13:03:22;5.93;;;1.25;;
18144;SDS011;14857;41.200;-8.326;2022-11-18T13:05:58;5.28;;;1.27;;
18144;SDS011;14857;41.200;-8.326;2022-11-18T13:08:30;6.28;;;1.40;;
18144;SDS011;14857;41.200;-8.326;2022-11-18T13:11:02;2.30;;;1.10;;
18144;SDS011;14857;41.200;-8.326;2022-11-18T13:13:53;2.70;;;1.20;;
18144;SDS011;14857;41.200;-8.326;2022-11-18T13:16:36;3.67;;;1.48;;
18144;SDS011;14857;41.200;-8.326;2022-11-18T13:19:31;5.13;;;1.27;;
18144;SDS011;14857;41.200;-8.326;2022-11-18T13:22:00;7.38;;;1.95;;
18144;SDS011;14857;41.200;-8.326;2022-11-18T13:24:49;5.55;;;2.22;;
18144;SDS011;14857;41.200;-8.326;2022-11-18T13:27:22;5.32;;;2.38;;
18144;SDS011;14857;41.200;-8.326;2022-11-18T13:30:00;5.00;;;1.83;;
18144;SDS011;14857;41.200;-8.326;2022-11-18T13:32:31;10.32;;;3.33;;
18144;SDS011;14857;41.200;-8.326;2022-11-18T13:35:06;17.10;;;6.22;;
18144;SDS011;14857;41.200;-8.326;2022-11-18T13:37:46;9.00;;;3.83;;
18144;SDS011;14857;41.200;-8.326;2022-11-18T13:40:19;8.85;;;3.75;;
18144;SDS011;14857;41.200;-8.326;2022-11-18T13:42:49;6.75;;;1.58;;
18144;SDS011;14857;41.200;-8.326;2022-11-18T13:45:18;4.30;;;1.45;;
18144;SDS011;14857;41.200;-8.326;2022-11-18T13:47:49;26.45;;;10.15;;
18144;SDS011;14857;41.200;-8.326;2022-11-18T13:50:25;24.27;;;11.18;;
18144;SDS011;14857;41.200;-8.326;2022-11-18T13:53:08;18.90;;;11.98;;
18144;SDS011;14857;41.200;-8.326;2022-11-18T13:55:53;29.35;;;13.63;;
18144;SDS011;14857;41.200;-8.326;2022-11-18T13:58:31;3.47;;;1.60;;
18144;SDS011;14857;41.200;-8.326;2022-11-18T14:01:24;8.05;;;1.70;;
18144;SDS011;14857;41.200;-8.326;2022-11-18T14:03:54;2.58;;;1.70;;
18144;SDS011;14857;41.200;-8.326;2022-11-18T14:06:25;8.82;;;4.70;;
18144;SDS011;14857;41.200;-8.326;2022-11-18T14:09:04;4.70;;;2.00;;
18144;SDS011;14857;41.200;-8.326;2022-11-18T14:11:44;1.73;;;1.15;;
18144;SDS011;14857;41.200;-8.326;2022-11-18T14:14:27;3.13;;;1.70;;
18144;SDS011;14857;41.200;-8.326;2022-11-18T14:17:11;6.55;;;2.53;;
18144;SDS011;14857;41.200;-8.326;2022-11-18T14:19:44;4.70;;;1.60;;
18144;SDS011;14857;41.200;-8.326;2022-11-18T14:22:14;8.93;;;2.70;;
18144;SDS011;14857;41.200;-8.326;2022-11-18T14:24:52;7.20;;;2.67;;
18144;SDS011;14857;41.200;-8.326;2022-11-18T14:35:52;13.57;;;5.00;;
18144;SDS011;14857;41.200;-8.326;2022-11-18T14:38:23;7.35;;;3.15;;
18144;SDS011;14857;41.200;-8.326;2022-11-18T14:41:17;3.55;;;1.38;;
18144;SDS011;14857;41.200;-8.326;2022-11-18T14:44:12;5.05;;;1.83;;
18144;SDS011;14857;41.200;-8.326;2022-11-18T14:46:42;3.95;;;1.92;;
18144;SDS011;14857;41.200;-8.326;2022-11-18T14:49:14;6.57;;;1.55;;
18144;SDS011;14857;41.200;-8.326;2022-11-18T14:51:45;6.68;;;2.97;;
18144;SDS011;14857;41.200;-8.326;2022-11-18T14:54:14;11.07;;;4.22;;
18144;SDS011;14857;41.200;-8.326;2022-11-18T14:56:52;5.43;;;1.80;;
18144;SDS011;14857;41.200;-8.326;2022-11-18T14:59:24;5.57;;;1.90;;
18144;SDS011;14857;41.200;-8.326;2022-11-18T15:01:52;2.92;;;1.60;;
18144;SDS011;14857;41.200;-8.326;2022-11-18T15:04:22;3.00;;;1.58;;
18144;SDS011;14857;41.200;-8.326;2022-11-18T15:06:52;10.40;;;2.95;;
18144;SDS011;14857;41.200;-8.326;2022-11-18T15:09:20;12.18;;;3.45;;
18144;SDS011;14857;41.200;-8.326;2022-11-18T15:11:49;9.18;;;2.60;;
18144;SDS011;14857;41.200;-8.326;2022-11-18T15:14:18;17.55;;;4.22;;
18144;SDS011;14857;41.200;-8.326;2022-11-18T15:16:48;11.88;;;2.45;;
18144;SDS011;14857;41.200;-8.326;2022-11-18T15:19:17;12.77;;;2.97;;
18144;SDS011;14857;41.200;-8.326;2022-11-18T15:21:45;5.15;;;2.55;;
18144;SDS011;14857;41.200;-8.326;2022-11-18T15:24:14;9.48;;;2.40;;
18144;SDS011;14857;41.200;-8.326;2022-11-18T15:26:43;7.35;;;1.80;;
18144;SDS011;14857;41.200;-8.326;2022-11-18T15:29:14;7.10;;;2.10;;
18144;SDS011;14857;41.200;-8.326;2022-11-18T15:31:44;6.78;;;1.90;;
18144;SDS011;14857;41.200;-8.326;2022-11-18T15:34:14;6.18;;;1.73;;
18144;SDS011;14857;41.200;-8.326;2022-11-18T15:36:46;9.27;;;2.05;;
18144;SDS011;14857;41.200;-8.326;2022-11-18T15:39:15;3.42;;;1.40;;
18144;SDS011;14857;41.200;-8.326;2022-11-18T15:41:43;9.48;;;2.13;;
18144;SDS011;14857;41.200;-8.326;2022-11-18T15:44:12;4.40;;;2.63;;
18144;SDS011;14857;41.200;-8.326;2022-11-18T15:46:42;9.88;;;1.95;;
18144;SDS011;14857;41.200;-8.326;2022-11-18T15:49:15;7.25;;;1.83;;
18144;SDS011;14857;41.200;-8.326;2022-11-18T15:51:44;5.00;;;1.80;;
18144;SDS011;14857;41.200;-8.326;2022-11-18T15:54:13;2.33;;;1.25;;
18144;SDS011;14857;41.200;-8.326;2022-11-18T15:56:42;1.90;;;1.00;;
18144;SDS011;14857;41.200;-8.326;2022-11-18T15:59:11;12.13;;;1.75;;